Time;durP1;ratioP1;P1;durP2;ratioP2;P2;SDS_P1;SDS_P2;PMS_P1;PMS_P2;Temp;Humidity;BMP_temperature;BMP_pressure;BME280_temperature;BME280_humidity;BME280_pressure;Samples;Min_cycle;Max_cycle;Signal;HPM_P1;HPM_P2
2023/05/15 00:02:07;;;;;;;;;;;;;;;21.75;48.42;101470.84;5050299;28;19917;-72
2023/05/15 00:04:33;;;;;;;;;;;;;;;21.76;48.31;101477.09;5031241;28;19913;-72
2023/05/15 00:06:58;;;;;;;;;;;;;;;21.74;48.40;101493.47;5046197;28;19917;-73
2023/05/15 00:09:23;;;;;;;;;;;;;;;21.73;48.67;101475.56;5035997;28;19920;-73
2023/05/15 00:11:48;;;;;;;;;;;;;;;21.73;48.47;101475.56;5048849;28;19917;-73
2023/05/15 00:14:13;;;;;;;;;;;;;;;21.73;48.39;101478.28;5022664;28;19972;-73
2023/05/15 00:16:39;;;;;;;;;;;;;;;21.73;48.25;101474.72;5033023;28;20639;-73
2023/05/15 00:19:04;;;;;;;;;;;;;;;21.73;48.32;101469.31;5033455;28;19919;-73
2023/05/15 00:21:30;;;;;;;;;;;;;;;21.71;48.43;101467.63;5036445;28;19984;-73
2023/05/15 00:23:57;;;;;;;;;;;;;;;21.72;48.59;101471.19;5033674;28;19921;-73
2023/05/15 00:26:22;;;;;;;;;;;;;;;21.70;48.15;101465.91;5030824;28;20317;-74
2023/05/15 00:28:47;;;;;;;;;;;;;;;21.71;48.35;101459.50;5029917;28;19920;-73
2023/05/15 00:31:13;;;;;;;;;;;;;;;21.69;48.50;101453.41;5037586;28;19937;-73
2023/05/15 00:33:38;;;;;;;;;;;;;;;21.69;48.26;101450.69;5017055;28;20282;-73
2023/05/15 00:36:04;;;;;;;;;;;;;;;21.68;48.10;101449.03;5029471;28;19956;-73
2023/05/15 00:38:29;;;;;;;;;;;;;;;21.68;48.29;101449.03;5026958;28;19925;-74
2023/05/15 00:40:54;;;;;;;;;;;;;;;21.68;48.34;101445.47;5031642;28;19924;-73
2023/05/15 00:43:20;;;;;;;;;;;;;;;21.67;48.26;101443.78;5041337;28;19924;-73
2023/05/15 00:45:45;;;;;;;;;;;;;;;21.66;48.05;101439.38;5041714;28;19921;-73
2023/05/15 00:48:10;;;;;;;;;;;;;;;21.64;48.06;101431.44;5037436;28;20008;-73
2023/05/15 00:50:35;;;;;;;;;;;;;;;21.64;48.19;101436.00;5029435;28;19921;-74
2023/05/15 00:53:01;;;;;;;;;;;;;;;21.64;48.15;101425.19;5039539;28;19949;-74
2023/05/15 00:55:26;;;;;;;;;;;;;;;21.63;48.15;101428.91;5030743;28;19913;-73
2023/05/15 00:57:51;;;;;;;;;;;;;;;21.63;48.21;101431.63;5028134;28;19959;-73
2023/05/15 01:00:17;;;;;;;;;;;;;;;21.62;48.43;101428.09;5041563;28;19914;-73
2023/05/15 01:02:42;;;;;;;;;;;;;;;21.61;48.00;101429.06;5028915;28;19967;-73
2023/05/15 01:05:08;;;;;;;;;;;;;;;21.61;48.23;101422.81;5027622;28;20091;-73
2023/05/15 01:07:34;;;;;;;;;;;;;;;21.60;48.12;101432.81;5028759;28;19967;-73
2023/05/15 01:09:59;;;;;;;;;;;;;;;21.59;48.00;101433.84;5033923;28;19928;-73
2023/05/15 01:12:25;;;;;;;;;;;;;;;21.59;48.07;101433.84;5031659;28;19921;-74
2023/05/15 01:14:50;;;;;;;;;;;;;;;21.58;48.07;101415.03;5038886;28;19917;-73
2023/05/15 01:17:16;;;;;;;;;;;;;;;21.56;48.06;101434.16;5031180;28;19917;-73
2023/05/15 01:19:41;;;;;;;;;;;;;;;21.57;48.03;101421.47;5029246;28;20387;-72
2023/05/15 01:22:19;;;;;;;;;;;;;;;21.56;48.00;101420.63;5037556;28;20008;-73
2023/05/15 01:25:07;;;;;;;;;;;;;;;21.55;48.15;101423.53;5041648;28;19967;-73
2023/05/15 01:27:38;;;;;;;;;;;;;;;21.54;48.17;101417.28;5033013;28;19918;-73
2023/05/15 01:30:08;;;;;;;;;;;;;;;21.54;48.14;101421.84;5033091;28;19930;-73
2023/05/15 01:32:38;;;;;;;;;;;;;;;21.53;48.05;101428.25;5017217;28;19941;-74
2023/05/15 01:35:07;;;;;;;;;;;;;;;21.51;48.23;101417.63;5028473;28;19913;-74
2023/05/15 01:37:33;;;;;;;;;;;;;;;21.51;47.87;101408.66;5032412;28;19920;-73
2023/05/15 01:40:01;;;;;;;;;;;;;;;21.51;48.00;101414.06;5040217;28;20013;-73
2023/05/15 01:42:29;;;;;;;;;;;;;;;21.50;47.83;101417.81;5034675;28;20010;-73
2023/05/15 01:44:55;;;;;;;;;;;;;;;21.50;48.13;101415.09;5028672;28;19969;-73
2023/05/15 01:47:21;;;;;;;;;;;;;;;21.49;47.93;101416.09;5039164;28;19917;-73
2023/05/15 01:49:46;;;;;;;;;;;;;;;21.48;48.04;101417.13;5032816;28;19917;-73
2023/05/15 01:52:19;;;;;;;;;;;;;;;21.46;47.83;101425.41;5027676;28;19913;-73
2023/05/15 01:54:44;;;;;;;;;;;;;;;21.46;47.89;101420.84;5032555;28;19921;-73
2023/05/15 01:57:10;;;;;;;;;;;;;;;21.46;47.90;101411.88;5030360;28;20287;-73
2023/05/15 01:59:35;;;;;;;;;;;;;;;21.44;47.98;101417.44;5030497;28;19964;-73
2023/05/15 02:02:01;;;;;;;;;;;;;;;21.44;47.71;101419.31;5045463;28;19913;-73
2023/05/15 02:04:26;;;;;;;;;;;;;;;21.42;47.76;101408.69;5034089;28;19984;-73
2023/05/15 02:06:52;;;;;;;;;;;;;;;21.42;47.78;101424.06;5043196;28;20028;-73
2023/05/15 02:09:17;;;;;;;;;;;;;;;21.41;48.12;101428.66;5035656;28;19925;-73
2023/05/15 02:11:42;;;;;;;;;;;;;;;21.40;47.85;101424.22;5034492;28;19914;-73
2023/05/15 02:14:08;;;;;;;;;;;;;;;21.39;47.99;101425.25;5021777;28;19921;-73
2023/05/15 02:16:33;;;;;;;;;;;;;;;21.39;47.74;101427.13;5037214;28;19917;-73
2023/05/15 02:18:58;;;;;;;;;;;;;;;21.38;47.99;101423.56;5045289;28;19914;-73
2023/05/15 02:21:23;;;;;;;;;;;;;;;21.38;47.99;101425.44;5034147;28;19917;-73
2023/05/15 02:23:48;;;;;;;;;;;;;;;21.37;47.99;101424.59;5031955;28;20338;-73
2023/05/15 02:26:16;;;;;;;;;;;;;;;21.36;47.90;101413.94;5036804;28;19924;-74
2023/05/15 02:28:42;;;;;;;;;;;;;;;21.36;47.77;101417.47;5033061;28;20001;-73
2023/05/15 02:31:12;;;;;;;;;;;;;;;21.35;47.82;101409.53;5034645;28;19913;-73
2023/05/15 02:33:41;;;;;;;;;;;;;;;21.34;47.92;101407.88;5030981;28;19940;-73
2023/05/15 02:36:08;;;;;;;;;;;;;;;21.33;47.80;101404.31;5041392;28;19922;-73
2023/05/15 02:38:36;;;;;;;;;;;;;;;21.31;47.72;101398.19;5041544;28;19913;-73
2023/05/15 02:41:01;;;;;;;;;;;;;;;21.31;47.77;101394.63;5032529;28;19913;-73
2023/05/15 02:43:26;;;;;;;;;;;;;;;21.30;47.60;101390.25;5039886;28;19920;-73
2023/05/15 02:45:52;;;;;;;;;;;;;;;21.29;47.81;101397.53;5031313;28;19917;-74
2023/05/15 02:48:17;;;;;;;;;;;;;;;21.28;47.90;101395.84;5044128;28;19987;-74
2023/05/15 02:50:42;;;;;;;;;;;;;;;21.28;47.85;101393.16;5033066;28;19967;-73
2023/05/15 02:53:08;;;;;;;;;;;;;;;21.26;47.67;101387.03;5032124;28;19917;-73
2023/05/15 02:55:34;;;;;;;;;;;;;;;21.27;47.61;101396.00;5032531;28;19921;-73
2023/05/15 02:57:59;;;;;;;;;;;;;;;21.25;47.82;101382.66;5031431;28;19936;-73
2023/05/15 03:00:25;;;;;;;;;;;;;;;21.24;47.88;101383.69;5029873;28;19922;-73
2023/05/15 03:02:50;;;;;;;;;;;;;;;21.23;47.51;101387.38;5032123;28;20009;-72
2023/05/15 03:05:15;;;;;;;;;;;;;;;21.23;47.70;101385.53;5035373;28;19921;-73
2023/05/15 03:07:41;;;;;;;;;;;;;;;21.22;47.53;101386.53;5030163;28;19921;-72
2023/05/15 03:10:06;;;;;;;;;;;;;;;21.21;47.59;101386.72;5041283;28;20337;-72
2023/05/15 03:12:31;;;;;;;;;;;;;;;21.20;47.49;101387.75;5038029;28;19929;-72
2023/05/15 03:14:57;;;;;;;;;;;;;;;21.19;47.77;101391.44;5052069;28;19913;-73
2023/05/15 03:17:22;;;;;;;;;;;;;;;21.18;47.80;101398.72;5037153;28;20000;-72
2023/05/15 03:19:47;;;;;;;;;;;;;;;21.18;47.79;101403.28;5050868;28;19920;-72
2023/05/15 03:22:12;;;;;;;;;;;;;;;21.17;47.48;101423.25;5051446;28;19917;-72
2023/05/15 03:24:37;;;;;;;;;;;;;;;21.16;47.64;101424.25;5032216;28;20423;-72
2023/05/15 03:27:03;;;;;;;;;;;;;;;21.15;47.66;101425.25;5055326;28;19917;-73
2023/05/15 03:29:28;;;;;;;;;;;;;;;21.14;47.45;101421.72;5045163;28;19980;-72
2023/05/15 03:31:54;;;;;;;;;;;;;;;21.13;47.45;101422.72;5038091;28;19913;-73
2023/05/15 03:34:19;;;;;;;;;;;;;;;21.13;47.52;101416.47;5049794;28;19913;-73
2023/05/15 03:36:44;;;;;;;;;;;;;;;21.12;47.47;101421.06;5055135;28;19943;-73
2023/05/15 03:39:09;;;;;;;;;;;;;;;21.12;47.53;101414.81;5054272;28;19913;-73
2023/05/15 03:41:35;;;;;;;;;;;;;;;20.61;47.50;101328.53;5050173;28;19917;-73
2023/05/15 03:44:00;;;;;;;;;;;;;;;21.10;47.79;101406.00;5055015;28;20001;-73
2023/05/15 03:46:25;;;;;;;;;;;;;;;21.08;47.35;101400.78;5049236;28;19917;-73
2023/05/15 03:48:50;;;;;;;;;;;;;;;21.08;47.55;101408.03;5033698;28;19952;-73
2023/05/15 03:51:15;;;;;;;;;;;;;;;21.07;47.49;101399.09;5052134;28;19927;-73
2023/05/15 03:53:40;;;;;;;;;;;;;;;21.06;47.73;101396.53;5051099;28;19916;-73
2023/05/15 03:56:06;;;;;;;;;;;;;;;21.06;47.35;101399.25;5053457;28;19956;-72
2023/05/15 03:58:31;;;;;;;;;;;;;;;21.04;47.69;101394.03;5038909;28;19921;-72
2023/05/15 04:00:56;;;;;;;;;;;;;;;21.04;47.39;101398.59;5050799;28;19920;-72
2023/05/15 04:03:21;;;;;;;;;;;;;;;21.03;47.41;101397.75;5050821;28;19913;-74
2023/05/15 04:05:48;;;;;;;;;;;;;;;21.03;47.53;101399.59;5027737;28;19948;-74
2023/05/15 04:08:14;;;;;;;;;;;;;;;21.02;47.68;101393.31;5048564;28;19920;-74
2023/05/15 04:10:39;;;;;;;;;;;;;;;21.01;47.52;101397.06;5055943;28;19913;-74
2023/05/15 04:13:04;;;;;;;;;;;;;;;21.00;47.72;101389.13;5053323;28;19921;-74
2023/05/15 04:15:29;;;;;;;;;;;;;;;20.99;47.63;101391.00;5050073;28;19936;-74
2023/05/15 04:17:55;;;;;;;;;;;;;;;21.01;47.50;101391.66;5039816;28;19919;-70
2023/05/15 04:20:20;;;;;;;;;;;;;;;21.00;47.88;101394.53;5035955;28;19913;-72
2023/05/15 04:22:46;;;;;;;;;;;;;;;20.99;47.97;101399.09;5049971;28;20393;-70
2023/05/15 04:25:12;;;;;;;;;;;;;;;20.99;47.86;101391.00;5030918;28;19983;-72
2023/05/15 04:27:38;;;;;;;;;;;;;;;20.99;48.10;101392.84;5051777;28;20358;-73
2023/05/15 04:30:04;;;;;;;;;;;;;;;21.00;48.22;101386.44;5048892;28;19919;-73
2023/05/15 04:32:29;;;;;;;;;;;;;;;21.00;48.30;101389.13;5056899;28;19919;-73
2023/05/15 04:34:54;;;;;;;;;;;;;;;20.99;48.15;101388.28;5049076;28;19975;-72
2023/05/15 04:37:19;;;;;;;;;;;;;;;21.01;48.15;101396.22;5057205;28;19917;-73
2023/05/15 04:39:44;;;;;;;;;;;;;;;21.01;48.36;101396.22;5052100;28;20328;-71
2023/05/15 04:42:10;;;;;;;;;;;;;;;21.01;48.61;101394.34;5042795;28;19980;-72
2023/05/15 04:44:35;;;;;;;;;;;;;;;21.01;48.51;101399.75;5054362;28;19917;-72
2023/05/15 04:47:00;;;;;;;;;;;;;;;21.01;48.54;101396.22;5032295;28;20324;-73
2023/05/15 04:49:25;;;;;;;;;;;;;;;21.01;48.72;101396.22;5048912;28;19917;-73
2023/05/15 04:51:51;;;;;;;;;;;;;;;21.01;48.54;101398.91;5049044;28;19937;-73
2023/05/15 04:54:16;;;;;;;;;;;;;;;21.01;48.54;101396.22;5038408;28;19948;-72
2023/05/15 04:56:41;;;;;;;;;;;;;;;21.00;48.45;101408.06;5052872;28;19921;-72
2023/05/15 04:59:06;;;;;;;;;;;;;;;21.00;48.58;101410.75;5059930;28;19914;-71
2023/05/15 05:01:31;;;;;;;;;;;;;;;21.01;48.60;101412.44;5051366;28;19936;-71
2023/05/15 05:03:56;;;;;;;;;;;;;;;21.01;48.68;101412.44;5054887;28;19987;-71
2023/05/15 05:06:22;;;;;;;;;;;;;;;21.02;48.64;101422.22;5051191;28;20011;-72
2023/05/15 05:08:47;;;;;;;;;;;;;;;21.01;48.79;101418.69;5050883;28;20432;-72
2023/05/15 05:11:12;;;;;;;;;;;;;;;21.01;48.85;101423.25;5032147;28;19980;-72
2023/05/15 05:13:37;;;;;;;;;;;;;;;21.02;48.92;101411.41;5052612;28;19921;-72
2023/05/15 05:16:03;;;;;;;;;;;;;;;21.02;48.89;101422.22;5034228;28;19925;-72
2023/05/15 05:18:29;;;;;;;;;;;;;;;21.02;48.78;101422.22;5032167;28;20393;-72
2023/05/15 05:21:00;;;;;;;;;;;;;;;21.01;48.70;101423.25;5033761;28;19948;-72
2023/05/15 05:23:26;;;;;;;;;;;;;;;21.01;48.95;101426.78;5048324;28;19924;-71
2023/05/15 05:25:51;;;;;;;;;;;;;;;21.02;48.74;101433.03;5017936;28;19916;-72
2023/05/15 05:28:16;;;;;;;;;;;;;;;21.02;48.72;101438.44;5052509;28;19913;-73
2023/05/15 05:30:45;;;;;;;;;;;;;;;21.00;49.10;101435.09;5052607;28;19913;-73
2023/05/15 05:33:10;;;;;;;;;;;;;;;21.01;48.85;101443.00;5058437;28;19939;-72
2023/05/15 05:35:35;;;;;;;;;;;;;;;21.01;48.96;101440.31;5051493;28;19917;-72
2023/05/15 05:38:01;;;;;;;;;;;;;;;21.01;48.97;101434.91;5056749;28;19956;-71
2023/05/15 05:40:26;;;;;;;;;;;;;;;21.02;48.92;101441.16;5053848;28;19982;-72
2023/05/15 05:42:51;;;;;;;;;;;;;;;21.01;48.78;101434.91;5051570;28;19961;-72
2023/05/15 05:45:16;;;;;;;;;;;;;;;21.01;48.96;101434.91;5035021;28;19980;-73
2023/05/15 05:47:41;;;;;;;;;;;;;;;21.02;48.93;101435.75;5039289;28;19912;-72
2023/05/15 05:50:07;;;;;;;;;;;;;;;21.02;49.11;101435.75;5052916;28;20420;-72
2023/05/15 05:52:32;;;;;;;;;;;;;;;21.02;48.84;101438.44;5055254;28;19917;-72
2023/05/15 05:54:57;;;;;;;;;;;;;;;21.02;49.07;101436.59;5055966;28;19920;-72
2023/05/15 05:57:22;;;;;;;;;;;;;;;21.02;48.88;101430.34;5052990;28;19923;-71
2023/05/15 05:59:48;;;;;;;;;;;;;;;21.02;49.04;101436.59;5057455;28;19925;-71
2023/05/15 06:02:13;;;;;;;;;;;;;;;21.02;49.04;101433.03;5034442;28;19917;-72
2023/05/15 06:04:39;;;;;;;;;;;;;;;21.02;48.97;101433.03;5058120;28;19939;-72
2023/05/15 06:07:04;;;;;;;;;;;;;;;21.02;48.76;101441.16;5059261;28;19920;-73
2023/05/15 06:09:29;;;;;;;;;;;;;;;21.01;48.52;101429.50;5038385;28;19938;-72
2023/05/15 06:11:54;;;;;;;;;;;;;;;21.01;48.61;101432.19;5056548;28;19976;-72
2023/05/15 06:14:20;;;;;;;;;;;;;;;21.01;48.82;101429.50;5038650;28;20285;-72
2023/05/15 06:16:45;;;;;;;;;;;;;;;21.01;48.42;101429.50;5055512;28;19952;-72
2023/05/15 06:19:10;;;;;;;;;;;;;;;21.02;48.79;101427.63;5040011;28;20466;-72
2023/05/15 06:21:35;;;;;;;;;;;;;;;21.02;48.52;101431.19;5040812;28;19917;-73
2023/05/15 06:24:00;;;;;;;;;;;;;;;21.02;48.65;101431.19;5054503;28;19920;-73
2023/05/15 06:26:26;;;;;;;;;;;;;;;21.02;48.48;101433.88;5060756;28;19924;-73
2023/05/15 06:28:51;;;;;;;;;;;;;;;21.02;48.67;101433.88;5039288;28;20582;-75
2023/05/15 06:31:16;;;;;;;;;;;;;;;21.02;48.63;101431.19;5062342;28;20392;-74
2023/05/15 06:33:41;;;;;;;;;;;;;;;21.02;48.64;101425.78;5058380;28;19920;-74
2023/05/15 06:36:06;;;;;;;;;;;;;;;21.02;48.70;101425.78;5053474;28;19923;-72
2023/05/15 06:38:32;;;;;;;;;;;;;;;21.03;48.91;101423.94;5057292;28;19916;-72
2023/05/15 06:40:57;;;;;;;;;;;;;;;21.04;48.75;101422.91;5056446;28;19913;-72
2023/05/15 06:43:22;;;;;;;;;;;;;;;21.04;48.63;101429.16;5047676;28;19913;-72
2023/05/15 06:45:48;;;;;;;;;;;;;;;21.04;48.58;101425.63;5035387;28;19945;-71
2023/05/15 06:48:13;;;;;;;;;;;;;;;21.06;48.76;101428.97;5053326;28;19967;-71
2023/05/15 06:50:38;;;;;;;;;;;;;;;21.05;48.88;101419.19;5054480;28;19945;-71
2023/05/15 06:53:03;;;;;;;;;;;;;;;21.07;48.80;101422.56;5054863;28;19917;-74
2023/05/15 06:55:28;;;;;;;;;;;;;;;21.07;48.57;101419.84;5057269;28;19939;-71
2023/05/15 06:57:54;;;;;;;;;;;;;;;21.07;48.63;101422.56;5051212;28;19924;-71
2023/05/15 07:00:19;;;;;;;;;;;;;;;21.09;48.67;101420.53;5056324;28;19916;-72
2023/05/15 07:02:44;;;;;;;;;;;;;;;21.08;48.88;101433.22;5052804;28;19936;-72
2023/05/15 07:05:10;;;;;;;;;;;;;;;21.08;48.83;101425.09;5053771;28;19924;-72
2023/05/15 07:07:35;;;;;;;;;;;;;;;21.09;48.72;101425.94;5057025;28;19917;-72
2023/05/15 07:10:00;;;;;;;;;;;;;;;21.08;48.56;101430.50;5050225;28;19917;-71
2023/05/15 07:12:25;;;;;;;;;;;;;;;21.07;48.55;101428.84;5050499;28;19933;-71
2023/05/15 07:14:51;;;;;;;;;;;;;;;21.08;48.55;101421.56;5052687;28;19960;-72
2023/05/15 07:17:16;;;;;;;;;;;;;;;21.07;48.73;101419.84;5052126;28;20016;-72
2023/05/15 07:19:41;;;;;;;;;;;;;;;21.07;48.58;101430.66;5050287;28;19913;-72
2023/05/15 07:22:06;;;;;;;;;;;;;;;21.06;48.75;101420.88;5058480;28;19946;-72
2023/05/15 07:24:32;;;;;;;;;;;;;;;21.06;48.62;101421.72;5049751;28;19963;-72
2023/05/15 07:26:57;;;;;;;;;;;;;;;21.08;48.79;101424.28;5055400;28;19920;-73
2023/05/15 07:29:22;;;;;;;;;;;;;;;21.07;48.57;101427.97;5057069;28;19917;-73
2023/05/15 07:31:48;;;;;;;;;;;;;;;21.08;48.56;101424.28;5060963;28;19923;-73
2023/05/15 07:34:13;;;;;;;;;;;;;;;21.09;48.59;101424.09;5053405;28;19921;-73
2023/05/15 07:36:38;;;;;;;;;;;;;;;21.09;48.60;101424.09;5052178;28;20440;-73
2023/05/15 07:39:03;;;;;;;;;;;;;;;21.10;48.47;101425.75;5058642;28;19952;-72
2023/05/15 07:41:29;;;;;;;;;;;;;;;21.11;48.39;101426.59;5055268;28;19913;-72
2023/05/15 07:43:55;;;;;;;;;;;;;;;21.10;48.34;101431.19;5053025;28;19918;-70
2023/05/15 07:46:20;;;;;;;;;;;;;;;21.11;48.75;101429.31;5057827;28;19922;-73
2023/05/15 07:48:45;;;;;;;;;;;;;;;21.10;48.47;101424.94;5059971;28;20046;-72
2023/05/15 07:51:10;;;;;;;;;;;;;;;21.11;48.67;101423.91;5060142;28;19921;-73
2023/05/15 07:53:35;;;;;;;;;;;;;;;21.09;48.61;101415.13;5053789;28;19932;-71
2023/05/15 07:56:01;;;;;;;;;;;;;;;21.10;48.55;101433.03;5037262;28;19917;-71
2023/05/15 07:58:27;;;;;;;;;;;;;;;21.10;48.54;101427.63;5049023;28;19917;-71
2023/05/15 08:00:52;;;;;;;;;;;;;;;21.09;48.63;101418.69;5055745;28;20000;-71
2023/05/15 08:03:17;;;;;;;;;;;;;;;21.09;48.43;101415.97;5053746;28;19920;-70
2023/05/15 08:05:42;;;;;;;;;;;;;;;21.10;48.23;101420.34;5061504;28;19913;-72
2023/05/15 08:08:08;;;;;;;;;;;;;;;21.10;48.39;101423.06;5055150;28;20004;-71
2023/05/15 08:10:33;;;;;;;;;;;;;;;21.10;48.60;101419.53;5057086;28;20274;-71
2023/05/15 08:12:58;;;;;;;;;;;;;;;21.11;48.42;101418.50;5054173;28;19925;-70
2023/05/15 08:15:23;;;;;;;;;;;;;;;21.10;48.36;101417.66;5050409;28;19916;-70
2023/05/15 08:17:48;;;;;;;;;;;;;;;21.11;48.73;101407.69;5054062;28;19921;-70
2023/05/15 08:20:14;;;;;;;;;;;;;;;21.10;48.66;101412.25;5059431;28;19931;-70
2023/05/15 08:22:39;;;;;;;;;;;;;;;21.10;48.53;101424.94;5039820;28;19913;-70
2023/05/15 08:25:05;;;;;;;;;;;;;;;21.10;48.87;101414.94;5050072;28;19925;-71
2023/05/15 08:27:31;;;;;;;;;;;;;;;21.10;48.54;101422.22;5043628;28;19913;-70
2023/05/15 08:29:56;;;;;;;;;;;;;;;21.10;48.54;101411.41;5034552;28;19967;-71
2023/05/15 08:32:21;;;;;;;;;;;;;;;21.10;48.78;101414.09;5050984;28;19917;-71
2023/05/15 08:34:46;;;;;;;;;;;;;;;21.10;48.80;101411.41;5053364;28;20122;-68
2023/05/15 08:37:12;;;;;;;;;;;;;;;21.10;48.81;101406.00;5055935;28;19921;-72
2023/05/15 08:39:37;;;;;;;;;;;;;;;21.10;48.73;101412.25;5049494;28;20002;-71
2023/05/15 08:42:17;;;;;;;;;;;;;;;21.10;48.67;101408.69;5048674;28;20314;-72
2023/05/15 08:44:42;;;;;;;;;;;;;;;21.10;48.87;101404.13;5055195;28;19920;-72
2023/05/15 08:47:08;;;;;;;;;;;;;;;21.10;48.69;101404.13;5052511;28;19913;-72
2023/05/15 08:49:51;;;;;;;;;;;;;;;21.11;48.74;101403.16;5060029;28;19912;-72
2023/05/15 08:52:16;;;;;;;;;;;;;;;21.12;48.60;101401.28;5053211;28;19921;-71
2023/05/15 08:54:42;;;;;;;;;;;;;;;21.11;48.90;101400.44;5054140;28;19917;-71
2023/05/15 08:57:07;;;;;;;;;;;;;;;21.10;48.79;101393.31;5052272;28;19918;-72
2023/05/15 08:59:32;;;;;;;;;;;;;;;21.13;48.77;101397.56;5051409;28;19913;-71
2023/05/15 09:01:57;;;;;;;;;;;;;;;21.11;48.91;101395.03;5035850;28;19913;-71
2023/05/15 09:04:22;;;;;;;;;;;;;;;21.11;48.85;101389.63;5043678;28;19913;-71
2023/05/15 09:06:47;;;;;;;;;;;;;;;21.12;48.55;101394.00;5052472;28;19917;-72
2023/05/15 09:09:13;;;;;;;;;;;;;;;21.12;48.58;101393.16;5053884;28;19963;-72
2023/05/15 09:11:40;;;;;;;;;;;;;;;21.13;48.71;101389.44;5058108;28;20000;-72
2023/05/15 09:14:06;;;;;;;;;;;;;;;21.13;48.47;101390.28;5033391;28;19968;-72
2023/05/15 09:16:31;;;;;;;;;;;;;;;21.15;48.61;101390.09;5058150;28;19917;-71
2023/05/15 09:18:56;;;;;;;;;;;;;;;21.14;48.66;101391.13;5056608;28;19924;-72
2023/05/15 09:21:22;;;;;;;;;;;;;;;21.14;48.78;101386.56;5055180;28;20335;-71
2023/05/15 09:23:48;;;;;;;;;;;;;;;21.14;48.50;101388.41;5057524;28;19920;-72
2023/05/15 09:26:13;;;;;;;;;;;;;;;21.15;48.64;101393.69;5055427;28;19917;-72
2023/05/15 09:28:38;;;;;;;;;;;;;;;21.15;48.63;101392.81;5056977;28;19914;-72
2023/05/15 09:31:04;;;;;;;;;;;;;;;21.15;48.50;101399.09;5038864;28;19917;-72
2023/05/15 09:33:29;;;;;;;;;;;;;;;21.15;48.44;101393.69;5056587;28;19917;-71
2023/05/15 09:35:54;;;;;;;;;;;;;;;21.15;48.69;101390.97;5054961;28;19984;-72
2023/05/15 09:38:19;;;;;;;;;;;;;;;21.17;48.58;101388.09;5054730;28;19984;-73
2023/05/15 09:40:44;;;;;;;;;;;;;;;21.17;48.82;101385.38;5050756;28;20377;-72
2023/05/15 09:43:10;;;;;;;;;;;;;;;21.18;48.48;101385.19;5054880;28;19975;-72
2023/05/15 09:45:35;;;;;;;;;;;;;;;21.17;48.64;101375.41;5056268;28;19913;-71
2023/05/15 09:48:04;;;;;;;;;;;;;;;21.18;48.93;101374.38;5057209;28;19923;-72
2023/05/15 09:50:33;;;;;;;;;;;;;;;21.18;49.05;101377.09;5061165;28;20438;-74
2023/05/15 09:52:59;;;;;;;;;;;;;;;21.20;48.80;101376.94;5053070;28;19917;-72
2023/05/15 09:55:24;;;;;;;;;;;;;;;21.20;49.14;101379.63;5064756;28;20286;-74
2023/05/15 09:58:03;;;;;;;;;;;;;;;21.21;49.06;101384.88;5052923;28;20381;-72
2023/05/15 10:00:28;;;;;;;;;;;;;;;21.21;48.96;101387.56;5054255;28;19917;-71
2023/05/15 10:02:56;;;;;;;;;;;;;;;21.22;49.30;101389.25;5055201;28;19913;-71
2023/05/15 10:05:21;;;;;;;;;;;;;;;21.23;49.42;101381.97;5053342;28;19944;-71
2023/05/15 10:07:46;;;;;;;;;;;;;;;21.23;49.42;101377.41;5032271;28;19917;-72
2023/05/15 10:10:12;;;;;;;;;;;;;;;21.24;49.37;101380.97;5034420;28;19913;-71
2023/05/15 10:12:37;;;;;;;;;;;;;;;21.25;49.42;101385.38;5055613;28;19924;-71
2023/05/15 10:15:03;;;;;;;;;;;;;;;21.26;49.42;101380.81;5053914;28;19963;-70
2023/05/15 10:17:29;;;;;;;;;;;;;;;21.27;49.52;101371.66;5061224;28;19929;-74
2023/05/15 10:19:54;;;;;;;;;;;;;;;21.27;49.46;101375.19;5033778;28;19914;-71
2023/05/15 10:22:22;;;;;;;;;;;;;;;21.28;49.27;101376.03;5045252;28;19924;-71
2023/05/15 10:24:49;;;;;;;;;;;;;;;21.28;49.57;101382.31;5036774;28;19972;-70
2023/05/15 10:27:14;;;;;;;;;;;;;;;21.29;49.39;101388.56;5034219;28;19925;-75
2023/05/15 10:29:39;;;;;;;;;;;;;;;21.30;49.64;101382.97;5037258;28;20000;-75
2023/05/15 10:32:05;;;;;;;;;;;;;;;21.31;49.31;101387.38;5055147;28;20344;-73
2023/05/15 10:34:30;;;;;;;;;;;;;;;21.33;49.44;101385.38;5046748;28;19928;-76
2023/05/15 10:36:55;;;;;;;;;;;;;;;21.35;49.62;101379.78;5018690;28;19924;-76
2023/05/15 10:39:20;;;;;;;;;;;;;;;21.35;49.73;101383.34;5039353;28;20464;-75
2023/05/15 10:41:45;;;;;;;;;;;;;;;21.37;49.45;101385.88;5032195;28;19917;-70
2023/05/15 10:44:11;;;;;;;;;;;;;;;21.38;49.52;101383.00;5041423;28;20435;-71
2023/05/15 10:46:36;;;;;;;;;;;;;;;21.40;49.51;101391.75;5036568;28;19967;-71
2023/05/15 10:49:01;;;;;;;;;;;;;;;21.42;49.70;101388.91;5051300;28;19920;-74
2023/05/15 10:51:27;;;;;;;;;;;;;;;21.44;49.36;101381.44;5039184;28;19916;-69
2023/05/15 10:53:53;;;;;;;;;;;;;;;21.46;49.68;101387.53;5052976;28;19914;-70
2023/05/15 10:56:18;;;;;;;;;;;;;;;21.47;49.48;101381.09;5055127;28;19921;-70
2023/05/15 10:58:47;;;;;;;;;;;;;;;21.49;49.28;101380.91;5031926;28;20513;-70
2023/05/15 11:01:30;;;;;;;;;;;;;;;21.51;49.40;101376.19;5057303;28;19918;-70
2023/05/15 11:04:06;;;;;;;;;;;;;;;21.53;49.26;101382.25;5033820;28;19935;-71
2023/05/15 11:06:32;;;;;;;;;;;;;;;21.55;49.21;101374.84;5055606;28;19984;-70
2023/05/15 11:09:16;;;;;;;;;;;;;;;21.56;49.42;101371.94;5049562;28;19913;-70
2023/05/15 11:11:51;;;;;;;;;;;;;;;21.58;49.08;101371.75;5057537;28;19921;-68
2023/05/15 11:14:16;;;;;;;;;;;;;;;21.61;49.19;101387.66;5052653;28;19920;-71
2023/05/15 11:17:02;;;;;;;;;;;;;;;21.61;49.23;101372.25;5055388;28;19925;-70
2023/05/15 11:19:27;;;;;;;;;;;;;;;21.63;49.26;101380.22;5036319;28;19968;-70
2023/05/15 11:21:56;;;;;;;;;;;;;;;21.65;49.24;101372.75;5050045;28;20418;-70
2023/05/15 11:24:25;;;;;;;;;;;;;;;21.67;49.26;101385.09;5052322;28;19917;-70
2023/05/15 11:26:51;;;;;;;;;;;;;;;21.69;49.19;101379.50;5050437;28;20366;-70
2023/05/15 11:29:17;;;;;;;;;;;;;;;21.70;49.11;101384.72;5050068;28;19927;-69
2023/05/15 11:31:42;;;;;;;;;;;;;;;21.72;48.79;101381.88;5052494;28;19919;-69
2023/05/15 11:34:07;;;;;;;;;;;;;;;21.74;49.03;101385.22;5052589;28;19917;-69
2023/05/15 11:36:32;;;;;;;;;;;;;;;21.75;49.05;101368.00;5047750;28;19939;-69
2023/05/15 11:38:58;;;;;;;;;;;;;;;21.76;49.27;101361.53;5054748;28;19912;-69
2023/05/15 11:41:28;;;;;;;;;;;;;;;21.78;49.38;101362.19;5038844;28;20003;-69
2023/05/15 11:43:53;;;;;;;;;;;;;;;21.80;49.13;101362.03;5036534;28;19916;-69
2023/05/15 11:46:19;;;;;;;;;;;;;;;21.81;49.35;101363.72;5054858;28;19912;-69
2023/05/15 11:48:46;;;;;;;;;;;;;;;21.83;49.23;101361.66;5046894;28;20596;-69
2023/05/15 11:51:14;;;;;;;;;;;;;;;21.84;49.42;101360.66;5053107;28;19934;-69
2023/05/15 11:53:39;;;;;;;;;;;;;;;21.86;49.12;101358.63;5049864;28;19917;-69
2023/05/15 11:56:05;;;;;;;;;;;;;;;21.87;49.60;101361.13;5033364;28;19917;-69
2023/05/15 11:58:30;;;;;;;;;;;;;;;21.89;49.20;101366.38;5050451;28;19924;-69
2023/05/15 12:00:56;;;;;;;;;;;;;;;21.90;49.42;101355.38;5052920;28;19937;-69
2023/05/15 12:03:34;;;;;;;;;;;;;;;21.92;49.44;101358.75;5046622;28;20083;-69
2023/05/15 12:06:00;;;;;;;;;;;;;;;21.93;49.12;101346.91;5053860;28;19923;-69
2023/05/15 12:08:25;;;;;;;;;;;;;;;21.95;49.54;101352.97;5051725;28;19991;-69
2023/05/15 12:10:50;;;;;;;;;;;;;;;21.96;49.13;101353.81;5053146;28;19943;-69
2023/05/15 12:13:16;;;;;;;;;;;;;;;22.00;49.48;101352.44;5054902;28;20432;-69
2023/05/15 12:15:42;;;;;;;;;;;;;;;22.01;49.13;101348.72;5050675;28;19917;-69
2023/05/15 12:18:08;;;;;;;;;;;;;;;22.02;49.50;101352.28;5052162;28;19912;-69
2023/05/15 12:20:36;;;;;;;;;;;;;;;22.03;49.35;101352.09;5048593;28;20294;-69
2023/05/15 12:23:02;;;;;;;;;;;;;;;22.05;49.49;101349.22;5050106;28;20647;-69
2023/05/15 12:25:28;;;;;;;;;;;;;;;22.05;49.37;101354.63;5050687;28;19913;-70
2023/05/15 12:27:53;;;;;;;;;;;;;;;22.06;49.39;101361.72;5033057;28;19999;-69
2023/05/15 12:30:18;;;;;;;;;;;;;;;22.06;49.36;101351.72;5030150;28;19917;-69